createdAt,value
2023-03-01T00:01:42.278Z,90.20
2023-03-01T00:04:12.426Z,90.16
2023-03-01T00:06:40.052Z,89.83
2023-03-01T00:09:07.611Z,90.35
2023-03-01T00:11:36.697Z,90.46
2023-03-01T00:14:07.565Z,90.67
2023-03-01T00:16:40.608Z,90.32
2023-03-01T00:19:09.352Z,90.23
2023-03-01T00:21:38.174Z,90.18
2023-03-01T00:24:06.274Z,90.33
2023-03-01T00:26:33.878Z,90.31
2023-03-01T00:29:01.890Z,90.49
2023-03-01T00:31:33.244Z,90.27
2023-03-01T00:34:02.434Z,90.42
2023-03-01T00:36:31.700Z,90.07
2023-03-01T00:39:01.542Z,90.38
2023-03-01T00:41:29.515Z,90.25
2023-03-01T00:43:57.968Z,90.36
2023-03-01T00:46:28.431Z,90.29
2023-03-01T00:48:58.180Z,90.27
2023-03-01T00:51:28.122Z,90.69
2023-03-01T00:54:02.360Z,90.53
2023-03-01T00:56:32.926Z,90.85
2023-03-01T00:59:00.806Z,90.83
2023-03-01T01:01:31.422Z,91.26
2023-03-01T01:04:00.967Z,91.32
2023-03-01T01:06:30.360Z,91.13
2023-03-01T01:08:59.409Z,91.02
2023-03-01T01:11:30.477Z,90.97
2023-03-01T01:13:59.395Z,91.19
2023-03-01T01:16:29.022Z,91.26
2023-03-01T01:18:57.577Z,91.17
2023-03-01T01:21:27.899Z,91.33
2023-03-01T01:23:56.957Z,91.42
2023-03-01T01:26:28.959Z,91.12
2023-03-01T01:28:57.135Z,91.58
2023-03-01T01:31:26.494Z,91.55
2023-03-01T01:33:55.233Z,91.29
2023-03-01T01:36:23.160Z,91.29
2023-03-01T01:38:50.671Z,91.36
2023-03-01T01:41:20.704Z,91.38
2023-03-01T01:43:53.375Z,91.24
2023-03-01T01:46:30.612Z,91.50
2023-03-01T01:49:02.071Z,91.32
2023-03-01T01:51:39.194Z,91.83
2023-03-01T01:54:12.385Z,91.72
2023-03-01T01:56:43.459Z,91.74
2023-03-01T01:59:14.827Z,91.36
2023-03-01T02:01:42.551Z,91.69
2023-03-01T02:04:10.327Z,91.39
2023-03-01T02:06:43.180Z,91.44
2023-03-01T02:09:16.339Z,91.58
2023-03-01T02:11:45.643Z,91.50
2023-03-01T02:14:14.641Z,91.84
2023-03-01T02:16:43.091Z,91.69
2023-03-01T02:19:22.325Z,92.09
2023-03-01T02:22:01.021Z,91.88
2023-03-01T02:24:37.107Z,91.70
2023-03-01T02:27:06.260Z,91.69
2023-03-01T02:29:37.359Z,91.74
2023-03-01T02:32:06.941Z,91.84
2023-03-01T02:34:35.747Z,91.85
2023-03-01T02:37:07.164Z,91.89
2023-03-01T02:39:43.335Z,92.10
2023-03-01T02:42:16.376Z,91.72
2023-03-01T02:44:46.588Z,91.93
2023-03-01T02:47:14.084Z,91.76
2023-03-01T02:49:42.344Z,92.01
2023-03-01T02:52:22.816Z,91.76
2023-03-01T02:54:56.354Z,91.85
2023-03-01T02:57:25.316Z,91.77
2023-03-01T02:59:58.328Z,91.76
2023-03-01T03:02:38.468Z,91.79
2023-03-01T03:05:12.829Z,92.32
2023-03-01T03:07:42.637Z,92.07
2023-03-01T03:10:14.434Z,92.37
2023-03-01T03:12:43.248Z,92.42
2023-03-01T03:15:13.512Z,92.76
2023-03-01T03:17:45.278Z,92.77
2023-03-01T03:20:20.414Z,92.75
2023-03-01T03:22:50.386Z,92.74
2023-03-01T03:25:19.638Z,92.86
2023-03-01T03:27:51.333Z,92.50
2023-03-01T03:30:22.688Z,92.69
2023-03-01T03:32:53.162Z,92.59
2023-03-01T03:35:21.902Z,92.57
2023-03-01T03:38:03.741Z,92.46
2023-03-01T03:40:36.624Z,92.49
2023-03-01T03:43:04.880Z,92.38
2023-03-01T03:45:34.660Z,92.01
2023-03-01T03:48:02.656Z,91.93
2023-03-01T03:50:30.452Z,92.17
2023-03-01T03:52:58.417Z,92.12
2023-03-01T03:55:30.878Z,92.21
2023-03-01T03:58:03.045Z,92.13
2023-03-01T04:00:31.531Z,91.92
2023-03-01T04:03:00.399Z,92.14
2023-03-01T04:05:29.476Z,92.10
2023-03-01T04:08:08.113Z,92.23
2023-03-01T04:10:38.934Z,92.44
2023-03-01T04:13:07.680Z,92.88
2023-03-01T04:15:35.945Z,92.78
2023-03-01T04:18:06.326Z,92.52
2023-03-01T04:20:36.609Z,92.70
2023-03-01T04:23:15.355Z,92.45
2023-03-01T04:25:47.355Z,92.34
2023-03-01T04:28:15.762Z,92.33
2023-03-01T04:30:43.305Z,92.29
2023-03-01T04:33:13.449Z,92.18
2023-03-01T04:35:41.849Z,92.44
2023-03-01T04:38:10.233Z,92.31
2023-03-01T04:40:38.108Z,92.26
2023-03-01T04:43:06.456Z,92.34
2023-03-01T04:45:36.330Z,92.19
2023-03-01T04:48:06.308Z,92.47
2023-03-01T04:50:36.872Z,92.52
2023-03-01T04:53:04.808Z,92.69
2023-03-01T04:55:32.482Z,92.43
2023-03-01T04:58:01.315Z,92.88
2023-03-01T05:00:30.371Z,93.02
2023-03-01T05:03:01.183Z,93.24
2023-03-01T05:05:30.740Z,93.15
2023-03-01T05:08:02.301Z,93.36
2023-03-01T05:10:31.571Z,93.69
2023-03-01T05:13:01.936Z,93.71
2023-03-01T05:15:31.660Z,93.73
2023-03-01T05:18:01.318Z,93.77
2023-03-01T05:20:32.311Z,93.61
2023-03-01T05:23:06.016Z,93.49
2023-03-01T05:25:35.354Z,93.20
2023-03-01T05:28:05.456Z,93.38
2023-03-01T05:30:33.741Z,93.54
2023-03-01T05:33:26.789Z,93.37
2023-03-01T05:35:55.810Z,93.09
2023-03-01T05:38:25.194Z,92.76
2023-03-01T05:40:54.612Z,92.94
2023-03-01T05:43:22.720Z,92.57
2023-03-01T05:45:50.452Z,92.43
2023-03-01T05:48:20.461Z,92.52
2023-03-01T05:50:48.499Z,92.53
2023-03-01T05:53:17.755Z,92.37
2023-03-01T05:55:48.374Z,92.13
2023-03-01T05:58:18.943Z,91.96
2023-03-01T06:00:48.536Z,91.83
2023-03-01T06:03:18.810Z,91.77
2023-03-01T06:05:47.443Z,91.64
2023-03-01T06:08:15.707Z,91.92
2023-03-01T06:10:44.326Z,91.77
2023-03-01T06:13:13.168Z,91.86
2023-03-01T06:15:40.714Z,91.89
2023-03-01T06:18:08.287Z,91.67
2023-03-01T06:20:36.408Z,91.96
2023-03-01T06:23:03.906Z,91.64
2023-03-01T06:25:35.316Z,91.61
2023-03-01T06:28:03.386Z,91.75
2023-03-01T06:30:32.947Z,91.76
2023-03-01T06:33:02.255Z,92.03
2023-03-01T06:35:32.416Z,92.11
2023-03-01T06:38:01.561Z,92.33
2023-03-01T06:40:31.303Z,92.61
2023-03-01T06:43:00.488Z,92.52
2023-03-01T06:45:29.300Z,93.02
2023-03-01T06:48:05.548Z,93.64
2023-03-01T06:51:02.337Z,93.87
2023-03-01T06:53:30.047Z,94.10
2023-03-01T06:56:21.934Z,94.66
2023-03-01T06:58:49.412Z,94.43
2023-03-01T07:01:18.340Z,94.54
2023-03-01T07:03:47.436Z,95.07
2023-03-01T07:06:15.391Z,95.13
2023-03-01T07:08:44.768Z,95.17
2023-03-01T07:11:12.309Z,95.67
2023-03-01T07:13:39.789Z,95.76
2023-03-01T07:16:09.602Z,96.21
2023-03-01T07:18:37.759Z,96.32
2023-03-01T07:21:13.069Z,96.57
2023-03-01T07:23:41.171Z,97.17
2023-03-01T07:26:08.888Z,97.41
2023-03-01T07:28:40.385Z,97.77
2023-03-01T07:31:08.685Z,98.01
2023-03-01T07:33:36.227Z,98.92
2023-03-01T07:36:06.206Z,100.00
2023-03-01T07:38:36.382Z,100.00
2023-03-01T07:41:06.547Z,100.00
2023-03-01T07:43:34.135Z,100.00
2023-03-01T07:46:02.245Z,100.00
2023-03-01T07:48:30.705Z,100.00
2023-03-01T07:51:00.021Z,100.00
2023-03-01T07:53:29.304Z,100.00
2023-03-01T07:56:04.996Z,100.00
2023-03-01T07:58:33.457Z,99.50
2023-03-01T08:01:04.280Z,99.18
2023-03-01T08:03:35.356Z,98.33
2023-03-01T08:06:03.959Z,97.33
2023-03-01T08:08:31.850Z,96.22
2023-03-01T08:11:00.097Z,95.57
2023-03-01T08:13:29.744Z,94.67
2023-03-01T08:16:04.696Z,93.38
2023-03-01T08:18:32.326Z,92.73
2023-03-01T08:21:03.989Z,92.24
2023-03-01T08:23:31.848Z,91.21
2023-03-01T08:26:06.878Z,90.52
2023-03-01T08:28:36.384Z,89.87
2023-03-01T08:31:06.458Z,89.87
2023-03-01T08:33:33.944Z,89.53
2023-03-01T08:36:07.795Z,89.00
2023-03-01T08:38:35.492Z,88.39
2023-03-01T08:41:03.163Z,87.75
2023-03-01T08:43:30.777Z,86.53
2023-03-01T08:45:59.654Z,85.32
2023-03-01T08:48:29.735Z,85.00
2023-03-01T08:50:58.748Z,84.26
2023-03-01T08:53:26.370Z,83.09
2023-03-01T08:55:54.312Z,82.36
2023-03-01T08:58:21.840Z,80.95
2023-03-01T09:00:51.311Z,80.25
2023-03-01T09:03:20.345Z,80.28
2023-03-01T09:05:47.825Z,79.10
2023-03-01T09:08:16.331Z,76.70
2023-03-01T09:10:44.043Z,74.73
2023-03-01T09:13:12.307Z,72.86
2023-03-01T09:15:40.831Z,72.81
2023-03-01T09:18:09.330Z,73.28
2023-03-01T09:20:39.148Z,73.23
2023-03-01T09:23:06.619Z,72.20
2023-03-01T09:25:35.813Z,72.17
2023-03-01T09:28:04.792Z,72.57
2023-03-01T09:30:32.441Z,71.38
2023-03-01T09:33:00.021Z,68.70
2023-03-01T09:35:28.324Z,67.20
2023-03-01T09:37:57.188Z,68.22
2023-03-01T09:40:29.119Z,68.99
2023-03-01T09:43:01.375Z,64.67
2023-03-01T09:45:35.344Z,64.42
2023-03-01T09:48:08.119Z,63.10
2023-03-01T09:50:37.403Z,63.11
2023-03-01T09:53:09.139Z,64.58
2023-03-01T09:55:42.129Z,64.29
2023-03-01T09:58:29.685Z,62.84
2023-03-01T10:01:02.310Z,62.78
2023-03-01T10:03:37.421Z,61.61
2023-03-01T10:06:27.472Z,60.48
2023-03-01T10:09:07.439Z,61.14
2023-03-01T10:11:40.694Z,60.41
2023-03-01T10:14:22.198Z,60.76
2023-03-01T10:16:55.354Z,60.36
2023-03-01T10:19:27.499Z,59.93
2023-03-01T10:21:55.333Z,59.03
2023-03-01T10:24:24.183Z,59.85
2023-03-01T10:26:58.337Z,59.93
2023-03-01T10:29:30.739Z,58.77
2023-03-01T10:31:59.341Z,58.23
2023-03-01T10:34:31.386Z,58.28
2023-03-01T10:36:59.747Z,57.35
2023-03-01T10:39:29.299Z,57.25
2023-03-01T10:42:00.392Z,56.31
2023-03-01T10:44:45.382Z,58.16
2023-03-01T10:47:21.323Z,58.69
2023-03-01T10:49:58.386Z,59.04
2023-03-01T10:52:28.802Z,58.47
2023-03-01T10:55:00.325Z,58.93
2023-03-01T10:57:37.630Z,58.45
2023-03-01T11:00:25.364Z,57.40
2023-03-01T11:03:13.059Z,57.58
2023-03-01T11:06:02.662Z,57.31
2023-03-01T11:08:48.833Z,56.74
2023-03-01T11:11:34.316Z,56.83
2023-03-01T11:14:23.471Z,56.31
2023-03-01T11:17:02.789Z,56.34
2023-03-01T11:19:30.834Z,56.44
2023-03-01T11:22:05.463Z,56.13
2023-03-01T11:24:41.175Z,56.14
2023-03-01T11:27:18.720Z,55.73
2023-03-01T11:29:51.990Z,56.25
2023-03-01T11:32:21.644Z,55.12
2023-03-01T11:34:53.092Z,55.80
2023-03-01T11:37:35.366Z,56.75
2023-03-01T11:40:13.375Z,56.59
2023-03-01T11:42:52.333Z,56.60
2023-03-01T11:45:25.829Z,56.30
2023-03-01T11:48:05.151Z,55.29
2023-03-01T11:50:41.744Z,55.83
2023-03-01T11:53:49.118Z,55.73
2023-03-01T11:56:28.304Z,55.16
2023-03-01T11:59:23.697Z,54.92
2023-03-01T12:02:08.867Z,54.30
2023-03-01T12:05:02.441Z,54.43
2023-03-01T12:07:42.731Z,54.58
2023-03-01T12:10:26.376Z,55.07
2023-03-01T12:13:15.875Z,54.29
2023-03-01T12:16:09.364Z,54.74
2023-03-01T12:18:58.650Z,54.76
2023-03-01T12:21:41.547Z,54.10
2023-03-01T12:24:34.299Z,53.90
2023-03-01T12:27:39.394Z,54.00
2023-03-01T12:30:29.395Z,53.63
2023-03-01T12:33:15.943Z,53.62
2023-03-01T12:36:18.626Z,53.63
2023-03-01T12:38:53.304Z,54.25
2023-03-01T12:41:45.618Z,54.61
2023-03-01T12:44:17.420Z,54.67
2023-03-01T12:47:01.308Z,54.94
2023-03-01T12:49:36.366Z,54.58
2023-03-01T12:52:14.144Z,55.07
2023-03-01T12:54:46.300Z,54.63
2023-03-01T12:57:22.765Z,54.50
2023-03-01T13:00:10.545Z,54.14
2023-03-01T13:02:48.379Z,54.65
2023-03-01T13:05:34.341Z,54.77
2023-03-01T13:08:11.283Z,54.58
2023-03-01T13:10:45.454Z,54.08
2023-03-01T13:13:20.432Z,53.34
2023-03-01T13:15:48.744Z,52.09
2023-03-01T13:18:34.197Z,52.02
2023-03-01T13:21:06.309Z,51.99
2023-03-01T13:23:37.305Z,51.98
2023-03-01T13:26:16.616Z,52.41
2023-03-01T13:28:54.428Z,52.66
2023-03-01T13:32:05.786Z,51.49
2023-03-01T13:34:45.848Z,51.85
2023-03-01T13:37:24.515Z,51.80
2023-03-01T13:39:52.317Z,51.24
2023-03-01T13:42:46.550Z,51.03
2023-03-01T13:45:25.160Z,49.99
2023-03-01T13:47:59.340Z,50.21
2023-03-01T13:50:30.395Z,50.58
2023-03-01T13:53:02.333Z,50.43
2023-03-01T13:55:36.812Z,49.08
2023-03-01T13:58:17.908Z,49.49
2023-03-01T14:00:45.434Z,50.39
2023-03-01T14:03:16.308Z,50.27
2023-03-01T14:05:50.315Z,49.78
2023-03-01T14:08:24.358Z,49.70
2023-03-01T14:11:19.321Z,49.15
2023-03-01T14:14:01.876Z,49.33
2023-03-01T14:16:40.365Z,49.38
2023-03-01T14:19:31.123Z,49.37
2023-03-01T14:22:05.265Z,49.84
2023-03-01T14:24:39.444Z,50.20
2023-03-01T14:27:13.278Z,50.46
2023-03-01T14:29:42.243Z,50.02
2023-03-01T14:32:20.071Z,50.13
2023-03-01T14:34:49.549Z,50.63
2023-03-01T14:37:22.572Z,50.91
2023-03-01T14:39:53.517Z,51.49
2023-03-01T14:42:26.298Z,50.94
2023-03-01T14:44:56.402Z,51.01
2023-03-01T14:47:31.611Z,51.02
2023-03-01T14:50:03.047Z,50.71
2023-03-01T14:52:38.318Z,49.55
2023-03-01T14:55:17.394Z,49.95
2023-03-01T14:57:50.309Z,48.68
2023-03-01T15:00:22.071Z,49.01
2023-03-01T15:02:51.893Z,49.08
2023-03-01T15:05:30.983Z,49.21
2023-03-01T15:08:02.456Z,49.42
2023-03-01T15:10:34.321Z,49.31
2023-03-01T15:13:12.909Z,49.75
2023-03-01T15:15:47.210Z,49.61
2023-03-01T15:18:18.739Z,50.29
2023-03-01T15:20:49.441Z,50.27
2023-03-01T15:23:23.080Z,49.85
2023-03-01T15:25:58.204Z,49.05
2023-03-01T15:28:52.316Z,48.46
2023-03-01T15:31:23.277Z,48.76
2023-03-01T15:33:52.014Z,48.78
2023-03-01T15:36:36.448Z,49.00
2023-03-01T15:39:07.087Z,48.47
2023-03-01T15:41:48.527Z,49.29
2023-03-01T15:44:19.342Z,49.11
2023-03-01T15:46:50.010Z,49.61
2023-03-01T15:49:46.451Z,49.21
2023-03-01T15:52:29.940Z,49.30
2023-03-01T15:55:00.292Z,49.16
2023-03-01T15:57:29.295Z,48.91
2023-03-01T15:59:57.159Z,49.56
2023-03-01T16:02:25.849Z,49.82
2023-03-01T16:04:54.568Z,50.06
2023-03-01T16:07:22.232Z,50.22
2023-03-01T16:09:50.730Z,50.23
2023-03-01T16:12:18.619Z,50.45
2023-03-01T16:14:50.237Z,50.36
2023-03-01T16:17:17.937Z,50.74
2023-03-01T16:19:45.449Z,50.68
2023-03-01T16:22:13.055Z,50.64
2023-03-01T16:24:41.513Z,51.16
2023-03-01T16:27:09.033Z,51.39
2023-03-01T16:29:37.243Z,51.66
2023-03-01T16:32:07.195Z,51.86
2023-03-01T16:37:26.612Z,52.06
2023-03-01T16:39:54.359Z,52.09
2023-03-01T16:42:21.961Z,52.36
2023-03-01T16:44:49.434Z,52.46
2023-03-01T16:47:18.311Z,52.96
2023-03-01T16:49:46.015Z,53.17
2023-03-01T16:52:14.029Z,53.66
2023-03-01T16:54:41.535Z,53.79
2023-03-01T16:57:09.424Z,54.50
2023-03-01T16:59:38.343Z,54.70
2023-03-01T17:02:06.764Z,54.90
2023-03-01T17:04:36.312Z,54.89
2023-03-01T17:07:05.757Z,55.63
2023-03-01T17:09:36.522Z,55.76
2023-03-01T17:12:05.308Z,55.77
2023-03-01T17:14:34.331Z,55.90
2023-03-01T17:17:03.468Z,56.29
2023-03-01T17:19:32.675Z,56.64
2023-03-01T17:22:01.793Z,56.67
2023-03-01T17:24:30.248Z,57.46
2023-03-01T17:26:58.321Z,57.93
2023-03-01T17:29:25.859Z,58.30
2023-03-01T17:31:54.828Z,58.13
2023-03-01T17:34:23.139Z,58.65
2023-03-01T17:36:52.129Z,59.31
2023-03-01T17:39:25.650Z,59.67
2023-03-01T17:41:53.325Z,59.76
2023-03-01T17:44:21.368Z,59.85
2023-03-01T17:46:48.936Z,60.58
2023-03-01T17:49:17.814Z,60.84
2023-03-01T17:51:46.321Z,61.18
2023-03-01T17:54:13.853Z,61.68
2023-03-01T17:56:43.316Z,61.61
2023-03-01T17:59:10.840Z,61.98
2023-03-01T18:01:39.017Z,62.16
2023-03-01T18:04:07.299Z,62.84
2023-03-01T18:06:37.230Z,63.02
2023-03-01T18:09:05.934Z,63.36
2023-03-01T18:11:34.996Z,63.76
2023-03-01T18:14:04.734Z,64.42
2023-03-01T18:16:33.858Z,64.71
2023-03-01T18:19:02.726Z,65.03
2023-03-01T18:21:31.669Z,64.99
2023-03-01T18:23:59.624Z,64.91
2023-03-01T18:26:29.891Z,65.23
2023-03-01T18:29:00.985Z,65.05
2023-03-01T18:31:33.479Z,65.21
2023-03-01T18:34:01.875Z,65.48
2023-03-01T18:36:32.578Z,65.38
2023-03-01T18:39:00.485Z,65.24
2023-03-01T18:41:29.941Z,65.29
2023-03-01T18:43:58.393Z,65.67
2023-03-01T18:46:26.510Z,65.96
2023-03-01T18:48:55.544Z,66.00
2023-03-01T18:51:26.879Z,66.25
2023-03-01T18:53:57.336Z,66.31
2023-03-01T18:56:25.493Z,66.57
2023-03-01T18:58:53.403Z,66.71
2023-03-01T19:01:24.678Z,66.63
2023-03-01T19:03:57.139Z,66.24
2023-03-01T19:06:30.355Z,66.30
2023-03-01T19:08:58.750Z,66.07
2023-03-01T19:11:27.214Z,65.60
2023-03-01T19:13:55.197Z,65.66
2023-03-01T19:16:27.335Z,65.46
2023-03-01T19:19:00.384Z,65.36
2023-03-01T19:21:33.777Z,65.84
2023-03-01T19:24:03.039Z,66.17
2023-03-01T19:26:31.913Z,66.27
2023-03-01T19:29:00.329Z,66.91
2023-03-01T19:31:29.753Z,67.52
2023-03-01T19:34:10.948Z,67.94
2023-03-01T19:36:39.501Z,68.16
2023-03-01T19:39:08.306Z,68.22
2023-03-01T19:41:40.364Z,68.65
2023-03-01T19:44:08.670Z,68.75
2023-03-01T19:46:36.546Z,69.26
2023-03-01T19:49:07.629Z,69.19
2023-03-01T19:51:36.708Z,69.32
2023-03-01T19:54:05.560Z,69.53
2023-03-01T19:56:33.766Z,69.37
2023-03-01T19:59:04.095Z,69.40
2023-03-01T20:01:33.965Z,69.52
2023-03-01T20:04:01.604Z,69.40
2023-03-01T20:06:31.304Z,69.63
2023-03-01T20:09:06.301Z,69.53
2023-03-01T20:11:36.749Z,69.37
2023-03-01T20:14:06.608Z,69.48
2023-03-01T20:16:34.686Z,69.40
2023-03-01T20:19:02.680Z,69.39
2023-03-01T20:21:34.085Z,69.09
2023-03-01T20:24:02.208Z,69.43
2023-03-01T20:26:30.059Z,69.54
2023-03-01T20:28:58.071Z,69.54
2023-03-01T20:31:29.053Z,69.51
2023-03-01T20:33:58.706Z,69.58
2023-03-01T20:36:26.573Z,69.53
2023-03-01T20:38:55.923Z,69.93
2023-03-01T20:41:25.853Z,69.67
2023-03-01T20:43:57.320Z,70.00
2023-03-01T20:46:26.656Z,70.37
2023-03-01T20:48:54.877Z,70.50
2023-03-01T20:51:23.306Z,70.71
2023-03-01T20:53:51.124Z,71.02
2023-03-01T20:56:21.693Z,71.03
2023-03-01T20:59:05.428Z,71.36
2023-03-01T21:01:33.711Z,71.41
2023-03-01T21:04:01.305Z,71.61
2023-03-01T21:06:29.158Z,71.73
2023-03-01T21:08:56.907Z,71.80
2023-03-01T21:11:26.059Z,71.99
2023-03-01T21:13:53.933Z,71.93
2023-03-01T21:16:22.666Z,72.17
2023-03-01T21:18:50.668Z,72.62
2023-03-01T21:21:20.962Z,72.64
2023-03-01T21:23:48.886Z,72.80
2023-03-01T21:26:19.304Z,72.87
2023-03-01T21:28:50.096Z,73.25
2023-03-01T21:31:19.510Z,73.31
2023-03-01T21:33:49.225Z,73.18
2023-03-01T21:36:17.277Z,73.59
2023-03-01T21:38:47.360Z,73.31
2023-03-01T21:41:17.315Z,73.67
2023-03-01T21:43:49.118Z,73.56
2023-03-01T21:46:20.330Z,73.83
2023-03-01T21:48:49.756Z,73.75
2023-03-01T21:51:19.598Z,74.01
2023-03-01T21:53:47.489Z,73.77
2023-03-01T21:56:17.654Z,73.70
2023-03-01T21:58:46.090Z,73.84
2023-03-01T22:01:17.077Z,74.13
2023-03-01T22:03:48.393Z,74.17
2023-03-01T22:06:19.476Z,74.09
2023-03-01T22:08:48.362Z,74.26
2023-03-01T22:11:19.305Z,74.44
2023-03-01T22:13:49.426Z,74.20
2023-03-01T22:16:20.203Z,74.07
2023-03-01T22:18:48.430Z,74.36
2023-03-01T22:21:17.017Z,74.30
2023-03-01T22:23:44.706Z,74.41
2023-03-01T22:26:23.440Z,74.67
2023-03-01T22:28:51.776Z,74.74
2023-03-01T22:31:21.250Z,75.00
2023-03-01T22:33:50.460Z,75.09
2023-03-01T22:36:18.259Z,75.24
2023-03-01T22:38:46.163Z,75.20
2023-03-01T22:41:13.980Z,75.20
2023-03-01T22:43:41.624Z,75.11
2023-03-01T22:46:14.466Z,75.25
2023-03-01T22:48:43.496Z,75.33
2023-03-01T22:51:15.519Z,75.45
2023-03-01T22:53:43.240Z,75.78
2023-03-01T22:56:13.841Z,75.54
2023-03-01T22:58:41.440Z,75.66
2023-03-01T23:01:13.847Z,75.66
2023-03-01T23:03:42.777Z,75.55
2023-03-01T23:06:12.316Z,75.41
2023-03-01T23:08:40.315Z,75.29
2023-03-01T23:11:13.667Z,75.24
2023-03-01T23:13:41.396Z,75.37
2023-03-01T23:16:09.711Z,75.45
2023-03-01T23:18:37.331Z,75.60
2023-03-01T23:21:10.567Z,75.62
2023-03-01T23:23:38.588Z,75.33
2023-03-01T23:26:07.050Z,75.57
2023-03-01T23:28:35.144Z,75.37
2023-03-01T23:31:04.507Z,74.95
2023-03-01T23:33:37.664Z,74.94
2023-03-01T23:36:07.289Z,75.00
2023-03-01T23:38:37.067Z,74.53
2023-03-01T23:41:04.870Z,74.87
2023-03-01T23:43:33.077Z,74.72
2023-03-01T23:46:01.434Z,75.00
2023-03-01T23:48:29.979Z,74.98
2023-03-01T23:50:57.537Z,75.12
2023-03-01T23:53:25.134Z,75.20
2023-03-01T23:55:55.131Z,75.49
2023-03-01T23:58:28.223Z,75.41
